createdAt,value
2018-07-19T00:01:07.035Z,95686.14
2018-07-19T00:03:36.481Z,95684.03
2018-07-19T00:06:06.172Z,95678.44
2018-07-19T00:08:35.588Z,95678.12
2018-07-19T00:11:05.178Z,95675.78
2018-07-19T00:13:34.701Z,95673.39
2018-07-19T00:16:04.228Z,95676.53
2018-07-19T00:18:33.641Z,95683.86
2018-07-19T00:21:03.035Z,95684.78
2018-07-19T00:23:32.518Z,95676.97
2018-07-19T00:26:02.137Z,95680.80
2018-07-19T00:28:31.294Z,95677.34
2018-07-19T00:31:00.683Z,95671.11
2018-07-19T00:33:30.069Z,95669.89
2018-07-19T00:35:59.490Z,95667.96
2018-07-19T00:38:29.069Z,95664.84
2018-07-19T00:40:58.530Z,95664.09
2018-07-19T00:43:27.957Z,95669.14
2018-07-19T00:45:57.577Z,95660.25
2018-07-19T00:48:27.001Z,95661.88
2018-07-19T00:50:56.608Z,95661.06
2018-07-19T00:53:25.988Z,95661.72
2018-07-19T00:55:55.747Z,95662.59
2018-07-19T00:58:25.601Z,95665.84
2018-07-19T01:00:55.150Z,95658.80
2018-07-19T01:03:24.547Z,95657.39
2018-07-19T01:05:54.001Z,95659.98
2018-07-19T01:08:23.464Z,95656.29
2018-07-19T01:10:52.915Z,95654.94
2018-07-19T01:13:22.353Z,95652.65
2018-07-19T01:15:51.692Z,95655.80
2018-07-19T01:18:21.049Z,95654.94
2018-07-19T01:20:50.497Z,95656.34
2018-07-19T01:23:19.952Z,95659.48
2018-07-19T01:25:49.373Z,95664.53
2018-07-19T01:28:18.955Z,95661.74
2018-07-19T01:30:49.306Z,95659.84
2018-07-19T01:33:18.740Z,95658.09
2018-07-19T01:35:48.139Z,95656.56
2018-07-19T01:38:17.657Z,95656.88
2018-07-19T01:40:47.834Z,95658.60
2018-07-19T01:43:17.363Z,95656.67
2018-07-19T01:45:47.803Z,95659.46
2018-07-19T01:48:17.914Z,95661.91
2018-07-19T01:50:47.496Z,95662.22
2018-07-19T01:53:17.028Z,95666.83
2018-07-19T01:55:46.502Z,95666.20
2018-07-19T01:58:16.023Z,95667.06
2018-07-19T02:00:45.498Z,95667.06
2018-07-19T02:03:15.054Z,95666.80
2018-07-19T02:05:44.512Z,95670.37
2018-07-19T02:08:13.911Z,95667.47
2018-07-19T02:10:43.319Z,95667.62
2018-07-19T02:13:12.844Z,95667.44
2018-07-19T02:15:42.322Z,95669.92
2018-07-19T02:18:11.753Z,95664.77
2018-07-19T02:20:41.169Z,95667.30
2018-07-19T02:23:10.694Z,95677.58
2018-07-19T02:25:40.108Z,95670.09
2018-07-19T02:28:09.590Z,95670.95
2018-07-19T02:30:39.076Z,95671.35
2018-07-19T02:33:08.479Z,95673.44
2018-07-19T02:35:37.905Z,95675.10
2018-07-19T02:38:07.374Z,95674.84
2018-07-19T02:40:36.545Z,95674.11
2018-07-19T02:43:05.977Z,95674.97
2018-07-19T02:45:35.337Z,95675.55
2018-07-19T02:48:04.785Z,95675.11
2018-07-19T02:50:34.169Z,95674.80
2018-07-19T02:53:03.546Z,95669.01
2018-07-19T02:55:32.953Z,95670.97
2018-07-19T02:58:02.434Z,95660.03
2018-07-19T03:00:31.823Z,95669.73
2018-07-19T03:03:01.214Z,95661.43
2018-07-19T03:05:30.646Z,95665.01
2018-07-19T03:08:00.173Z,95678.36
2018-07-19T03:10:29.652Z,95668.02
2018-07-19T03:12:59.028Z,95664.06
2018-07-19T03:15:28.481Z,95675.20
2018-07-19T03:17:58.497Z,95677.99
2018-07-19T03:20:27.958Z,95673.39
2018-07-19T03:22:57.388Z,95670.77
2018-07-19T03:25:26.908Z,95672.48
2018-07-19T03:27:56.414Z,95674.73
2018-07-19T03:30:25.903Z,95673.59
2018-07-19T03:32:55.366Z,95670.44
2018-07-19T03:35:24.920Z,95663.98
2018-07-19T03:37:54.468Z,95665.06
2018-07-19T03:40:23.855Z,95661.81
2018-07-19T03:42:53.382Z,95665.42
2018-07-19T03:45:22.789Z,95663.38
2018-07-19T03:47:52.236Z,95668.71
2018-07-19T03:50:21.622Z,95675.20
2018-07-19T03:52:51.038Z,95675.70
2018-07-19T03:55:20.199Z,95677.91
2018-07-19T03:57:50.668Z,95686.41
2018-07-19T04:00:20.559Z,95684.44
2018-07-19T04:02:50.153Z,95684.44
2018-07-19T04:05:19.786Z,95686.77
2018-07-19T04:07:49.152Z,95682.86
2018-07-19T04:10:18.589Z,95688.84
2018-07-19T04:12:48.976Z,95681.00
2018-07-19T04:15:18.638Z,95687.80
2018-07-19T04:17:53.387Z,95681.35
2018-07-19T04:20:23.794Z,95687.22
2018-07-19T04:22:53.665Z,95686.72
2018-07-19T04:25:23.636Z,95681.85
2018-07-19T04:27:53.881Z,95686.91
2018-07-19T04:30:23.310Z,95677.94
2018-07-19T04:32:52.706Z,95686.06
2018-07-19T04:35:22.274Z,95688.77
2018-07-19T04:37:51.813Z,95691.70
2018-07-19T04:40:21.320Z,95693.06
2018-07-19T04:42:50.752Z,95688.61
2018-07-19T04:45:20.235Z,95696.69
2018-07-19T04:47:49.825Z,95695.33
2018-07-19T04:50:19.357Z,95694.75
2018-07-19T04:52:48.932Z,95701.20
2018-07-19T04:55:18.413Z,95696.80
2018-07-19T04:57:47.985Z,95689.72
2018-07-19T05:00:17.525Z,95691.84
2018-07-19T05:02:46.671Z,95697.89
2018-07-19T05:05:16.127Z,95697.55
2018-07-19T05:07:45.587Z,95700.02
2018-07-19T05:10:15.339Z,95703.08
2018-07-19T05:12:45.121Z,95701.83
2018-07-19T05:15:14.540Z,95707.74
2018-07-19T05:17:43.942Z,95710.98
2018-07-19T05:20:13.522Z,95710.16
2018-07-19T05:22:42.903Z,95708.19
2018-07-19T05:25:12.294Z,95712.26
2018-07-19T05:27:41.684Z,95723.61
2018-07-19T05:30:11.206Z,95727.95
2018-07-19T05:32:40.604Z,95728.45
2018-07-19T05:35:09.970Z,95730.57
2018-07-19T05:37:39.387Z,95736.44
2018-07-19T05:40:08.832Z,95728.64
2018-07-19T05:42:38.249Z,95726.53
2018-07-19T05:45:07.959Z,95732.38
2018-07-19T05:47:37.493Z,95724.39
2018-07-19T05:50:06.977Z,95725.43
2018-07-19T05:52:36.464Z,95733.13
2018-07-19T05:55:06.020Z,95730.39
2018-07-19T05:57:35.449Z,95733.77
2018-07-19T06:00:05.434Z,95732.86
2018-07-19T06:02:35.686Z,95727.95
2018-07-19T06:05:05.299Z,95727.02
2018-07-19T06:07:34.664Z,95728.95
2018-07-19T06:10:04.457Z,95721.58
2018-07-19T06:12:33.836Z,95721.45
2018-07-19T06:15:09.544Z,95720.27
2018-07-19T06:17:38.965Z,95729.42
2018-07-19T06:20:10.559Z,95730.70
2018-07-19T06:22:40.117Z,95729.66
2018-07-19T06:25:09.771Z,95731.89
2018-07-19T06:27:39.162Z,95727.59
2018-07-19T06:30:08.709Z,95721.52
2018-07-19T06:32:38.166Z,95726.75
2018-07-19T06:35:07.826Z,95734.09
2018-07-19T06:37:37.255Z,95726.34
2018-07-19T06:40:06.845Z,95729.92
2018-07-19T06:42:36.337Z,95727.75
2018-07-19T06:45:06.226Z,95725.84
2018-07-19T06:47:35.998Z,95738.23
2018-07-19T06:50:05.528Z,95735.17
2018-07-19T06:52:34.937Z,95732.75
2018-07-19T06:55:04.441Z,95738.23
2018-07-19T06:57:34.616Z,95735.47
2018-07-19T07:00:05.049Z,95738.34
2018-07-19T07:02:34.477Z,95733.73
2018-07-19T07:05:03.904Z,95729.66
2018-07-19T07:07:33.257Z,95734.70
2018-07-19T07:10:02.638Z,95736.23
2018-07-19T07:12:32.074Z,95736.36
2018-07-19T07:15:01.505Z,95738.89
2018-07-19T07:17:30.819Z,95737.70
2018-07-19T07:20:00.354Z,95736.20
2018-07-19T07:22:29.800Z,95734.00
2018-07-19T07:24:59.293Z,95738.95
2018-07-19T07:27:28.776Z,95734.98
2018-07-19T07:29:58.415Z,95729.25
2018-07-19T07:32:28.035Z,95727.30
2018-07-19T07:34:57.666Z,95734.87
2018-07-19T07:37:27.117Z,95737.52
2018-07-19T07:39:56.699Z,95742.23
2018-07-19T07:44:54.670Z,95738.92
2018-07-19T07:47:24.141Z,95735.59
2018-07-19T07:49:53.882Z,95733.64
2018-07-19T07:52:23.292Z,95734.78
2018-07-19T07:54:52.767Z,95725.55
2018-07-19T07:57:22.512Z,95737.52
2018-07-19T07:59:51.994Z,95737.27
2018-07-19T08:02:21.778Z,95737.73
2018-07-19T08:04:51.188Z,95739.64
2018-07-19T08:07:20.574Z,95739.08
2018-07-19T08:09:51.149Z,95741.77
2018-07-19T08:12:20.597Z,95739.52
2018-07-19T08:14:51.055Z,95740.94
2018-07-19T08:17:20.474Z,95740.52
2018-07-19T08:19:49.877Z,95738.77
2018-07-19T08:22:19.787Z,95740.27
2018-07-19T08:24:49.191Z,95737.02
2018-07-19T08:27:18.947Z,95734.98
2018-07-19T08:29:49.076Z,95737.78
2018-07-19T08:32:18.476Z,95745.92
2018-07-19T08:34:48.626Z,95740.47
2018-07-19T08:37:18.423Z,95742.52
2018-07-19T08:39:48.095Z,95739.05
2018-07-19T08:42:17.510Z,95744.46
2018-07-19T08:44:47.415Z,95735.39
2018-07-19T08:47:16.821Z,95732.88
2018-07-19T08:49:47.639Z,95733.69
2018-07-19T08:52:18.352Z,95734.86
2018-07-19T08:54:47.936Z,95741.87
2018-07-19T08:57:17.343Z,95739.55
2018-07-19T08:59:46.694Z,95737.91
2018-07-19T09:02:16.175Z,95733.91
2018-07-19T09:04:45.777Z,95733.28
2018-07-19T09:07:17.557Z,95736.72
2018-07-19T09:09:47.630Z,95734.20
2018-07-19T09:12:17.269Z,95733.72
2018-07-19T09:14:46.671Z,95732.71
2018-07-19T09:17:16.124Z,95735.24
2018-07-19T09:19:46.303Z,95737.70
2018-07-19T09:22:16.001Z,95735.73
2018-07-19T09:24:45.475Z,95740.19
2018-07-19T09:27:15.391Z,95734.16
2018-07-19T09:29:44.780Z,95740.80
2018-07-19T09:32:14.322Z,95741.30
2018-07-19T09:34:43.718Z,95736.75
2018-07-19T09:37:13.229Z,95738.81
2018-07-19T09:39:42.644Z,95736.99
2018-07-19T09:42:13.075Z,95742.70
2018-07-19T09:44:42.479Z,95734.60
2018-07-19T09:47:12.075Z,95730.63
2018-07-19T09:49:41.513Z,95732.09
2018-07-19T09:52:10.939Z,95733.56
2018-07-19T09:54:55.760Z,95739.51
2018-07-19T09:57:25.335Z,95728.31
2018-07-19T09:59:54.773Z,95729.00
2018-07-19T10:02:24.555Z,95729.80
2018-07-19T10:04:53.995Z,95728.79
2018-07-19T10:07:23.419Z,95730.40
2018-07-19T10:09:52.830Z,95735.42
2018-07-19T10:12:22.218Z,95744.39
2018-07-19T10:14:51.683Z,95734.59
2018-07-19T10:17:21.099Z,95731.36
2018-07-19T10:19:50.517Z,95730.84
2018-07-19T10:22:20.245Z,95733.91
2018-07-19T10:24:50.667Z,95733.77
2018-07-19T10:27:20.107Z,95733.56
2018-07-19T10:29:49.583Z,95726.03
2018-07-19T10:32:19.877Z,95724.95
2018-07-19T10:34:49.300Z,95725.48
2018-07-19T10:37:18.781Z,95727.23
2018-07-19T10:39:48.225Z,95720.30
2018-07-19T10:42:17.758Z,95727.59
2018-07-19T10:44:47.135Z,95732.34
2018-07-19T10:47:16.657Z,95723.16
2018-07-19T10:49:46.282Z,95719.29
2018-07-19T10:52:15.566Z,95721.98
2018-07-19T10:54:45.026Z,95718.97
2018-07-19T10:57:14.194Z,95719.91
2018-07-19T10:59:43.641Z,95719.66
2018-07-19T11:02:13.130Z,95715.81
2018-07-19T11:04:42.838Z,95711.75
2018-07-19T11:07:12.778Z,95716.94
2018-07-19T11:09:42.236Z,95710.77
2018-07-19T11:12:11.617Z,95707.66
2018-07-19T11:14:41.021Z,95708.55
2018-07-19T11:17:10.441Z,95706.30
2018-07-19T11:19:39.873Z,95702.25
2018-07-19T11:22:09.241Z,95705.62
2018-07-19T11:24:39.501Z,95699.33
2018-07-19T11:27:08.897Z,95700.25
2018-07-19T11:29:38.318Z,95700.22
2018-07-19T11:32:07.793Z,95697.47
2018-07-19T11:34:37.205Z,95701.33
2018-07-19T11:37:06.634Z,95695.77
2018-07-19T11:39:36.216Z,95693.53
2018-07-19T11:42:05.905Z,95697.34
2018-07-19T11:44:35.279Z,95688.27
2018-07-19T11:47:04.661Z,95685.03
2018-07-19T11:49:34.068Z,95678.55
2018-07-19T11:52:03.438Z,95683.78
2018-07-19T11:54:33.051Z,95673.00
2018-07-19T11:57:02.553Z,95684.34
2018-07-19T11:59:31.926Z,95681.03
2018-07-19T12:02:01.860Z,95674.97
2018-07-19T12:04:31.293Z,95677.48
2018-07-19T12:07:00.808Z,95672.50
2018-07-19T12:09:30.232Z,95672.30
2018-07-19T12:11:59.758Z,95669.70
2018-07-19T12:14:29.194Z,95661.28
2018-07-19T12:16:58.642Z,95661.42
2018-07-19T12:19:28.022Z,95655.70
2018-07-19T12:21:57.433Z,95656.66
2018-07-19T12:24:26.973Z,95654.05
2018-07-19T12:26:56.451Z,95649.19
2018-07-19T12:29:25.953Z,95648.09
2018-07-19T12:31:55.420Z,95646.58
2018-07-19T12:34:24.843Z,95648.91
2018-07-19T12:36:54.280Z,95645.05
2018-07-19T12:39:23.674Z,95646.87
2018-07-19T12:41:53.070Z,95646.00
2018-07-19T12:44:23.063Z,95645.14
2018-07-19T12:46:52.260Z,95648.66
2018-07-19T12:49:21.657Z,95646.98
2018-07-19T12:51:51.090Z,95636.23
2018-07-19T12:54:20.494Z,95641.79
2018-07-19T12:56:49.893Z,95643.16
2018-07-19T12:59:19.297Z,95639.34
2018-07-19T13:01:48.750Z,95631.45
2018-07-19T13:04:18.176Z,95633.56
2018-07-19T13:06:47.705Z,95634.66
2018-07-19T13:09:17.139Z,95627.09
2018-07-19T13:11:46.575Z,95631.75
2018-07-19T13:14:16.067Z,95628.86
2018-07-19T13:16:45.466Z,95623.73
2018-07-19T13:19:14.900Z,95626.34
2018-07-19T13:21:44.413Z,95628.00
2018-07-19T13:24:13.886Z,95621.19
2018-07-19T13:26:43.240Z,95624.11
2018-07-19T13:29:13.193Z,95617.06
2018-07-19T13:31:42.697Z,95622.33
2018-07-19T13:34:13.564Z,95624.07
2018-07-19T13:36:43.190Z,95620.70
2018-07-19T13:39:12.664Z,95627.58
2018-07-19T13:41:42.110Z,95621.92
2018-07-19T13:44:12.061Z,95622.36
2018-07-19T13:46:41.504Z,95623.17
2018-07-19T13:49:10.914Z,95619.00
2018-07-19T13:51:40.348Z,95615.83
2018-07-19T13:54:27.732Z,95614.41
2018-07-19T13:56:57.167Z,95627.97
2018-07-19T13:59:27.425Z,95619.20
2018-07-19T14:01:57.546Z,95604.27
2018-07-19T14:04:27.178Z,95605.58
2018-07-19T14:06:56.718Z,95601.18
2018-07-19T14:09:26.306Z,95598.95
2018-07-19T14:11:55.782Z,95594.08
2018-07-19T14:14:25.198Z,95598.58
2018-07-19T14:16:54.665Z,95596.11
2018-07-19T14:19:24.166Z,95595.92
2018-07-19T14:21:53.865Z,95594.68
2018-07-19T14:24:23.246Z,95601.17
2018-07-19T14:26:52.701Z,95595.59
2018-07-19T14:29:22.091Z,95588.91
2018-07-19T14:31:51.771Z,95587.67
2018-07-19T14:34:21.665Z,95588.76
2018-07-19T14:36:50.887Z,95588.10
2018-07-19T14:39:20.338Z,95588.86
2018-07-19T14:41:50.028Z,95582.69
2018-07-19T14:44:19.569Z,95584.27
2018-07-19T14:46:48.993Z,95576.25
2018-07-19T14:49:18.434Z,95576.96
2018-07-19T14:51:47.837Z,95577.11
2018-07-19T14:54:17.290Z,95562.94
2018-07-19T14:56:46.883Z,95574.88
2018-07-19T14:59:16.302Z,95574.79
2018-07-19T15:01:45.870Z,95574.13
2018-07-19T15:04:15.346Z,95572.35
2018-07-19T15:06:44.713Z,95573.27
2018-07-19T15:09:14.130Z,95570.18
2018-07-19T15:11:43.651Z,95563.75
2018-07-19T15:14:13.107Z,95565.56
2018-07-19T15:16:43.029Z,95558.45
2018-07-19T15:19:12.453Z,95562.94
2018-07-19T15:21:41.875Z,95555.85
2018-07-19T15:24:11.336Z,95558.34
2018-07-19T15:26:40.697Z,95552.98
2018-07-19T15:29:10.099Z,95548.27
2018-07-19T15:31:41.098Z,95540.57
2018-07-19T15:34:10.509Z,95539.72
2018-07-19T15:36:39.944Z,95533.28
2018-07-19T15:39:10.173Z,95530.06
2018-07-19T15:41:39.898Z,95534.68
2018-07-19T15:44:09.383Z,95531.17
2018-07-19T15:46:38.827Z,95530.43
2018-07-19T15:49:08.982Z,95531.03
2018-07-19T15:51:38.484Z,95538.01
2018-07-19T15:54:08.181Z,95533.16
2018-07-19T15:56:38.117Z,95534.42
2018-07-19T15:59:07.629Z,95534.45
2018-07-19T16:01:37.257Z,95530.22
2018-07-19T16:04:06.756Z,95532.33
2018-07-19T16:06:36.163Z,95530.05
2018-07-19T16:09:12.366Z,95529.98
2018-07-19T16:11:41.876Z,95528.45
2018-07-19T16:14:11.294Z,95536.13
2018-07-19T16:16:40.718Z,95528.53
2018-07-19T16:19:10.178Z,95521.63
2018-07-19T16:21:39.669Z,95528.92
2018-07-19T16:24:09.150Z,95523.89
2018-07-19T16:26:38.617Z,95527.81
2018-07-19T16:29:08.020Z,95525.43
2018-07-19T16:31:37.587Z,95525.23
2018-07-19T16:34:07.087Z,95520.56
2018-07-19T16:36:36.518Z,95516.29
2018-07-19T16:39:09.342Z,95514.72
2018-07-19T16:41:39.409Z,95518.81
2018-07-19T16:44:09.268Z,95516.61
2018-07-19T16:46:38.690Z,95514.97
2018-07-19T16:49:08.151Z,95511.00
2018-07-19T16:51:37.894Z,95508.12
2018-07-19T16:54:07.531Z,95506.31
2018-07-19T16:56:37.165Z,95512.11
2018-07-19T16:59:06.664Z,95510.91
2018-07-19T17:01:36.153Z,95505.26
2018-07-19T17:04:05.850Z,95498.42
2018-07-19T17:06:35.382Z,95501.75
2018-07-19T17:09:07.983Z,95505.27
2018-07-19T17:11:39.410Z,95512.02
2018-07-19T17:14:08.902Z,95504.50
2018-07-19T17:16:38.392Z,95505.54
2018-07-19T17:19:07.912Z,95508.28
2018-07-19T17:21:38.505Z,95504.98
2018-07-19T17:24:08.010Z,95507.62
2018-07-19T17:26:37.590Z,95509.35
2018-07-19T17:29:18.751Z,95509.05
2018-07-19T17:31:49.518Z,95508.48
2018-07-19T17:34:19.025Z,95506.78
2018-07-19T17:36:48.424Z,95500.09
2018-07-19T17:39:17.921Z,95496.58
2018-07-19T17:41:47.348Z,95511.92
2018-07-19T17:44:16.976Z,95508.20
2018-07-19T17:46:47.593Z,95512.19
2018-07-19T17:49:17.522Z,95516.05
2018-07-19T17:51:47.263Z,95513.20
2018-07-19T17:54:16.690Z,95516.73
2018-07-19T17:56:46.150Z,95521.85
2018-07-19T17:59:15.569Z,95521.19
2018-07-19T18:01:45.152Z,95517.57
2018-07-19T18:04:14.973Z,95516.55
2018-07-19T18:06:45.613Z,95517.22
2018-07-19T18:09:15.180Z,95516.77
2018-07-19T18:11:44.632Z,95521.80
2018-07-19T18:14:15.160Z,95520.09
2018-07-19T18:16:44.533Z,95524.77
2018-07-19T18:19:14.118Z,95522.25
2018-07-19T18:21:43.724Z,95524.78
2018-07-19T18:24:13.321Z,95523.07
2018-07-19T18:26:42.811Z,95524.19
2018-07-19T18:29:12.326Z,95529.45
2018-07-19T18:31:42.850Z,95526.48
2018-07-19T18:34:12.436Z,95530.37
2018-07-19T18:36:41.898Z,95530.23
2018-07-19T18:39:12.735Z,95531.04
2018-07-19T18:41:42.340Z,95531.50
2018-07-19T18:44:16.057Z,95534.65
2018-07-19T18:46:45.653Z,95533.70
2018-07-19T18:49:15.075Z,95527.78
2018-07-19T18:51:45.465Z,95530.76
2018-07-19T18:54:14.916Z,95530.86
2018-07-19T18:56:48.286Z,95540.27
2018-07-19T18:59:17.746Z,95529.23
2018-07-19T19:01:47.322Z,95538.22
2018-07-19T19:04:16.714Z,95538.98
2018-07-19T19:06:46.160Z,95544.33
2018-07-19T19:09:15.596Z,95545.53
2018-07-19T19:11:44.993Z,95548.24
2018-07-19T19:14:14.401Z,95546.12
2018-07-19T19:16:43.817Z,95548.73
2018-07-19T19:19:13.254Z,95548.52
2018-07-19T19:21:42.622Z,95550.17
2018-07-19T19:24:12.035Z,95547.23
2018-07-19T19:26:41.562Z,95561.61
2018-07-19T19:29:10.992Z,95556.70
2018-07-19T19:31:40.413Z,95557.47
2018-07-19T19:34:10.508Z,95556.55
2018-07-19T19:36:39.632Z,95556.73
2018-07-19T19:39:10.956Z,95559.34
2018-07-19T19:41:40.492Z,95562.80
2018-07-19T19:44:10.751Z,95565.03
2018-07-19T19:46:40.244Z,95567.29
2018-07-19T19:49:09.695Z,95568.45
2018-07-19T19:51:39.084Z,95568.08
2018-07-19T19:54:09.327Z,95573.95
2018-07-19T19:56:38.749Z,95566.43
2018-07-19T19:59:08.261Z,95567.97
2018-07-19T20:01:37.622Z,95568.82
2018-07-19T20:04:07.615Z,95576.52
2018-07-19T20:06:37.222Z,95578.39
2018-07-19T20:09:10.062Z,95574.39
2018-07-19T20:11:41.367Z,95571.63
2018-07-19T20:14:10.798Z,95576.38
2018-07-19T20:16:40.216Z,95575.41
2018-07-19T20:19:09.647Z,95572.94
2018-07-19T20:21:39.085Z,95572.80
2018-07-19T20:24:08.638Z,95575.74
2018-07-19T20:26:38.073Z,95574.94
2018-07-19T20:29:07.700Z,95576.00
2018-07-19T20:31:37.237Z,95579.44
2018-07-19T20:34:06.931Z,95581.05
2018-07-19T20:36:36.402Z,95577.31
2018-07-19T20:39:07.785Z,95577.56
2018-07-19T20:41:37.198Z,95583.00
2018-07-19T20:44:07.018Z,95580.45
2018-07-19T20:46:36.452Z,95585.20
2018-07-19T20:49:05.998Z,95583.75
2018-07-19T20:51:35.422Z,95582.33
2018-07-19T20:54:04.963Z,95584.33
2018-07-19T20:56:35.556Z,95588.48
2018-07-19T20:59:04.996Z,95589.70
2018-07-19T21:01:34.467Z,95584.42
2018-07-19T21:04:03.986Z,95588.36
2018-07-19T21:06:33.398Z,95590.69
2018-07-19T21:09:02.911Z,95589.19
2018-07-19T21:11:32.375Z,95592.60
2018-07-19T21:14:01.790Z,95583.25
2018-07-19T21:16:31.187Z,95586.13
2018-07-19T21:19:00.612Z,95585.88
2018-07-19T21:21:30.080Z,95590.84
2018-07-19T21:23:59.534Z,95595.59
2018-07-19T21:26:29.001Z,95591.44
2018-07-19T21:28:58.401Z,95595.74
2018-07-19T21:31:27.984Z,95596.63
2018-07-19T21:33:57.618Z,95591.33
2018-07-19T21:36:27.276Z,95592.47
2018-07-19T21:38:56.856Z,95594.16
2018-07-19T21:41:26.359Z,95597.36
2018-07-19T21:43:55.975Z,95596.77
2018-07-19T21:46:25.553Z,95599.66
2018-07-19T21:48:54.976Z,95599.66
2018-07-19T21:51:24.383Z,95601.80
2018-07-19T21:53:53.830Z,95603.81
2018-07-19T21:56:23.303Z,95599.59
2018-07-19T21:58:52.901Z,95600.95
2018-07-19T22:01:22.389Z,95602.53
2018-07-19T22:03:51.965Z,95603.90
2018-07-19T22:06:21.376Z,95600.38
2018-07-19T22:08:50.761Z,95601.04
2018-07-19T22:11:20.486Z,95604.72
2018-07-19T22:13:49.934Z,95609.83
2018-07-19T22:16:19.341Z,95599.35
2018-07-19T22:18:48.788Z,95601.31
2018-07-19T22:21:17.961Z,95607.88
2018-07-19T22:23:47.383Z,95603.95
2018-07-19T22:26:16.808Z,95609.16
2018-07-19T22:28:46.210Z,95596.52
2018-07-19T22:31:15.619Z,95598.69
2018-07-19T22:33:51.497Z,95597.07
2018-07-19T22:36:20.883Z,95599.38
2018-07-19T22:38:50.373Z,95593.80
2018-07-19T22:41:19.777Z,95602.27
2018-07-19T22:43:49.177Z,95596.03
2018-07-19T22:46:18.610Z,95596.98
2018-07-19T22:48:48.269Z,95599.28
2018-07-19T22:51:17.794Z,95594.17
2018-07-19T22:53:47.226Z,95600.55
2018-07-19T22:56:16.648Z,95593.83
2018-07-19T22:58:46.075Z,95593.42
2018-07-19T23:01:16.099Z,95592.55
2018-07-19T23:03:45.494Z,95588.58
2018-07-19T23:06:14.851Z,95592.88
2018-07-19T23:08:44.239Z,95589.07
2018-07-19T23:11:13.674Z,95586.02
2018-07-19T23:13:43.110Z,95584.52
2018-07-19T23:16:12.566Z,95584.66
2018-07-19T23:18:41.946Z,95586.56
2018-07-19T23:21:11.332Z,95582.34
2018-07-19T23:23:40.704Z,95588.23
2018-07-19T23:26:11.221Z,95591.98
2018-07-19T23:28:40.677Z,95589.33
2018-07-19T23:31:10.045Z,95594.13
2018-07-19T23:33:39.441Z,95589.56
2018-07-19T23:36:17.070Z,95590.53
2018-07-19T23:38:52.162Z,95589.67
2018-07-19T23:41:26.588Z,95582.55
2018-07-19T23:44:00.841Z,95582.38
2018-07-19T23:46:49.537Z,95582.38
2018-07-19T23:49:18.979Z,95576.01
2018-07-19T23:51:48.432Z,95574.72
2018-07-19T23:54:17.833Z,95566.71
2018-07-19T23:56:47.277Z,95572.63
2018-07-19T23:59:16.833Z,95567.84
